Time;durP1;ratioP1;P1;durP2;ratioP2;P2;SDS_P1;SDS_P2;PMS_P1;PMS_P2;Temp;Humidity;BMP_temperature;BMP_pressure;BME280_temperature;BME280_humidity;BME280_pressure;Samples;Min_cycle;Max_cycle;Signal;HPM_P1;HPM_P2
2021/05/13 07:24:55;;;;;;;3.13;2.40;;;12.20;99.90;;;13.57;100.00;99247.25;4999177;28;20786;-61
2021/05/13 07:44:15;;;;;;;1.87;1.77;;;12.30;99.90;;;13.30;100.00;99245.50;4996805;28;20562;-61
2021/05/13 07:54:56;;;;;;;1.90;1.80;;;12.20;99.90;;;13.29;100.00;99239.28;4924078;28;20229;-61
2021/05/13 08:55:15;;;;;;;2.77;1.77;;;12.40;99.90;;;13.60;100.00;99202.97;4938024;28;20987;-60
2021/05/13 13:34:48;;;;;;;5.17;3.70;;;12.10;99.90;;;13.04;100.00;99197.00;4907170;28;20845;-61
2021/05/13 13:46:30;;;;;;;3.13;2.93;;;12.20;99.90;;;13.05;100.00;99204.03;5004318;28;20233;-62
2021/05/13 14:13:51;;;;;;;4.97;4.57;;;12.20;99.90;;;12.99;100.00;99202.13;4869479;28;20560;-63
2021/05/13 14:17:03;;;;;;;5.47;4.97;;;12.10;99.90;;;13.04;100.00;99205.88;4945452;28;22816;-64
2021/05/13 15:23:57;;;;;;;4.57;3.53;;;12.00;99.90;;;12.85;100.00;99201.28;4846827;28;20326;-63
2021/05/13 15:26:23;;;;;;;3.60;3.30;;;11.90;99.90;;;12.85;100.00;99201.28;4920973;28;20324;-62
2021/05/13 15:28:53;;;;;;;4.40;2.87;;;11.90;99.90;;;12.75;100.00;99195.41;4960388;28;20362;-62
2021/05/13 15:31:21;;;;;;;3.10;2.40;;;11.90;99.90;;;12.64;100.00;99202.16;4961333;28;20239;-61
2021/05/13 15:33:48;;;;;;;3.83;3.50;;;11.90;99.90;;;12.82;100.00;99193.59;4960102;28;21180;-61
2021/05/13 15:36:14;;;;;;;3.10;2.80;;;11.90;99.90;;;12.82;100.00;99196.28;4113075;28;10000322;-62
2021/05/13 15:38:41;;;;;;;3.30;2.53;;;11.90;99.90;;;12.74;100.00;99185.69;5024635;28;20516;-62
2021/05/13 15:41:08;;;;;;;3.20;2.60;;;11.90;99.90;;;12.85;100.00;99194.03;5022298;28;20214;-62
2021/05/13 15:43:34;;;;;;;2.67;2.47;;;11.90;99.90;;;12.93;100.00;99182.28;5020104;28;20244;-62
2021/05/13 15:46:01;;;;;;;4.37;2.50;;;11.90;99.90;;;12.95;100.00;99188.31;5024676;28;20612;-63
2021/05/13 15:48:27;;;;;;;3.20;2.77;;;11.90;99.90;;;12.97;100.00;99188.09;5022604;28;20528;-61
2021/05/13 15:50:53;;;;;;;3.27;2.53;;;12.00;99.90;;;12.99;100.00;99186.84;5007648;28;20560;-62
2021/05/13 15:53:20;;;;;;;3.00;2.30;;;12.00;99.90;;;13.00;100.00;99187.69;5028591;28;20217;-60
2021/05/13 15:55:48;;;;;;;1.80;1.70;;;12.00;99.90;;;12.80;100.00;99180.38;5025758;28;20514;-62
2021/05/13 15:58:17;;;;;;;2.40;2.20;;;12.10;99.90;;;12.92;100.00;99181.47;5023839;28;20674;-62
2021/05/13 16:00:44;;;;;;;2.47;2.27;;;12.10;99.90;;;12.74;100.00;99188.38;5024684;28;21152;-61
2021/05/13 16:03:11;;;;;;;2.40;2.20;;;12.00;99.90;;;12.84;100.00;99186.19;5024464;28;20533;-62
2021/05/13 16:05:37;;;;;;;2.40;2.20;;;12.00;99.90;;;12.79;100.00;99185.94;5024045;28;20646;-62
2021/05/13 16:08:05;;;;;;;2.27;1.97;;;12.00;99.90;;;12.83;100.00;99197.94;5023501;28;20455;-62
2021/05/13 16:10:34;;;;;;;2.20;1.87;;;11.90;99.90;;;12.76;100.00;99191.69;5024187;28;20627;-62
2021/05/13 16:13:09;;;;;;;3.83;2.20;;;11.90;99.90;;;12.63;100.00;99187.09;5024497;28;20220;-62
2021/05/13 16:15:37;;;;;;;10.57;8.60;;;11.90;99.90;;;12.76;100.00;99194.38;5023271;28;20435;-62
2021/05/13 16:18:04;;;;;;;4.77;4.37;;;11.80;99.90;;;12.69;100.00;99183.63;5023013;28;20230;-62
2021/05/13 16:20:31;;;;;;;3.17;2.43;;;11.80;99.90;;;12.63;100.00;99175.53;5023763;28;20288;-62
2021/05/13 16:22:58;;;;;;;2.87;2.60;;;11.80;99.90;;;12.73;100.00;99186.75;5023746;28;20828;-62
2021/05/13 16:25:24;;;;;;;3.20;2.87;;;11.80;99.90;;;12.74;100.00;99191.06;5021379;28;20211;-61
2021/05/13 16:27:51;;;;;;;3.07;2.80;;;11.80;99.90;;;12.73;100.00;99182.22;5016990;28;20381;-62
2021/05/13 16:30:18;;;;;;;3.77;2.10;;;11.80;99.90;;;12.57;100.00;99178.00;5023861;28;20686;-62
2021/05/13 16:32:46;;;;;;;3.37;2.47;;;11.80;99.90;;;12.64;100.00;99186.06;5022384;28;20226;-62
2021/05/13 16:35:13;;;;;;;2.50;2.30;;;11.70;99.90;;;12.71;100.00;99175.38;5022945;28;20241;-61
2021/05/13 16:37:40;;;;;;;2.43;2.23;;;11.70;99.90;;;12.67;100.00;99179.47;5023611;28;20487;-61
2021/05/13 16:40:08;;;;;;;2.43;2.23;;;11.70;99.90;;;12.63;100.00;99181.72;5024196;28;20773;-61
2021/05/13 16:42:35;;;;;;;2.60;2.40;;;11.70;99.90;;;12.65;100.00;99177.00;5024125;28;20577;-62
2021/05/13 16:45:01;;;;;;;3.90;2.60;;;11.70;99.90;;;12.70;100.00;99182.59;5022013;28;20257;-61
2021/05/13 16:47:28;;;;;;;3.43;2.50;;;11.70;99.90;;;12.69;100.00;99172.91;5022270;28;20416;-61
2021/05/13 16:49:55;;;;;;;2.30;2.10;;;11.70;99.90;;;12.66;100.00;99178.66;5019228;28;20250;-61
2021/05/13 16:52:22;;;;;;;2.10;2.00;;;11.70;99.90;;;12.67;100.00;99179.47;5024557;28;20684;-62
2021/05/13 16:54:48;;;;;;;2.50;2.30;;;11.70;99.90;;;12.67;100.00;99183.00;5024759;28;20884;-62
2021/05/13 16:57:14;;;;;;;14.77;3.47;;;11.70;99.90;;;12.68;100.00;99175.78;5024275;28;20408;-61
2021/05/13 16:59:41;;;;;;;3.00;2.53;;;11.70;99.90;;;12.62;100.00;99188.13;5022712;28;20737;-62
2021/05/13 17:02:08;;;;;;;4.00;2.40;;;11.70;99.90;;;12.69;100.00;99188.16;5023530;28;20221;-61
2021/05/13 17:04:37;;;;;;;2.30;2.10;;;11.70;99.90;;;12.59;100.00;99189.38;5023600;28;20502;-62
2021/05/13 17:07:04;;;;;;;2.37;2.20;;;11.70;99.90;;;12.61;100.00;99189.13;5023757;28;20491;-61
2021/05/13 17:09:31;;;;;;;4.20;2.17;;;11.70;99.90;;;12.57;100.00;99190.56;5024439;28;20336;-62
2021/05/13 17:11:57;;;;;;;2.13;1.93;;;11.70;99.90;;;12.54;100.00;99193.66;5024344;28;20259;-62
2021/05/13 17:14:24;;;;;;;2.40;2.20;;;11.70;99.90;;;12.61;100.00;99196.38;5024914;28;20429;-61
2021/05/13 17:16:50;;;;;;;3.53;2.90;;;11.70;99.90;;;12.56;100.00;99195.13;5019440;28;20682;-62
2021/05/13 17:19:18;;;;;;;3.37;2.80;;;11.60;99.90;;;12.56;100.00;99191.59;5025610;28;20423;-61
2021/05/13 17:21:44;;;;;;;3.00;2.70;;;11.70;99.90;;;12.59;100.00;99201.94;5022684;28;20804;-62
2021/05/13 17:24:13;;;;;;;4.00;3.23;;;11.60;99.90;;;12.58;100.00;99198.44;5018433;28;20552;-62
2021/05/13 17:26:41;;;;;;;4.30;3.00;;;11.60;99.90;;;12.53;100.00;99195.50;5004646;28;20665;-63
2021/05/13 17:29:07;;;;;;;4.00;3.60;;;11.70;99.90;;;12.54;100.00;99197.16;5024652;28;20894;-62
2021/05/13 17:31:34;;;;;;;5.07;4.67;;;11.70;99.90;;;12.54;100.00;99205.22;5023227;28;20276;-62
2021/05/13 17:34:00;;;;;;;6.60;3.90;;;11.70;99.90;;;12.54;100.00;99197.16;5024759;28;20737;-61
2021/05/13 17:36:27;;;;;;;3.47;3.17;;;11.70;99.90;;;12.51;100.00;99197.53;5024347;28;20915;-62
2021/05/13 17:38:54;;;;;;;5.70;4.43;;;11.60;99.90;;;12.52;100.00;99206.44;5017087;28;20466;-63
2021/05/13 17:41:21;;;;;;;8.67;7.97;;;11.60;99.90;;;12.48;100.00;99202.50;5024069;28;20265;-62
2021/05/13 17:43:48;;;;;;;3.93;3.50;;;11.60;99.90;;;12.44;100.00;99203.91;5024295;28;21023;-62
2021/05/13 17:46:14;;;;;;;4.83;4.40;;;11.60;99.90;;;12.48;100.00;99200.66;5023714;28;20226;-62
2021/05/13 17:48:43;;;;;;;3.70;3.17;;;11.60;99.90;;;12.44;100.00;99203.91;5024039;28;20221;-61
2021/05/13 17:51:11;;;;;;;4.80;3.80;;;11.60;99.90;;;12.45;100.00;99202.88;5005036;28;20405;-63
2021/05/13 17:53:37;;;;;;;3.93;3.60;;;11.50;99.90;;;12.43;100.00;99200.41;5024225;28;20227;-62
2021/05/13 17:56:04;;;;;;;5.47;5.07;;;11.50;99.90;;;12.40;100.00;99199.94;5024103;28;20476;-63
2021/05/13 17:58:32;;;;;;;4.67;4.30;;;11.50;99.90;;;12.39;100.00;99201.81;5024040;28;20248;-63
2021/05/13 18:00:58;;;;;;;5.63;4.80;;;11.50;99.90;;;12.37;100.00;99197.66;5023448;28;20221;-63
2021/05/13 18:03:28;;;;;;;5.77;4.80;;;11.50;99.90;;;12.38;100.00;99200.16;5023978;28;20652;-63
2021/05/13 18:05:55;;;;;;;4.77;4.07;;;11.50;99.90;;;12.35;100.00;99202.41;5022653;28;20221;-61
2021/05/13 18:08:23;;;;;;;6.23;4.60;;;11.50;99.90;;;12.38;100.00;99200.16;5023427;28;20619;-62
2021/05/13 18:10:52;;;;;;;6.03;5.43;;;11.50;99.90;;;12.36;100.00;99194.16;5018724;28;20202;-62
2021/05/13 18:13:19;;;;;;;4.57;4.17;;;11.50;99.90;;;12.37;100.00;99197.66;5014084;28;20331;-62
2021/05/13 18:15:46;;;;;;;4.77;4.07;;;11.50;99.90;;;12.35;100.00;99199.72;5018087;28;20547;-63
2021/05/13 18:18:13;;;;;;;4.70;4.30;;;11.40;99.90;;;12.34;100.00;99198.91;5021564;28;20234;-63
2021/05/13 18:20:42;;;;;;;6.13;4.10;;;11.40;99.90;;;12.33;100.00;99207.13;5013442;28;20332;-62
2021/05/13 18:23:08;;;;;;;4.83;4.43;;;11.40;99.90;;;12.32;100.00;99203.63;5017373;28;20502;-62
2021/05/13 18:25:35;;;;;;;4.13;3.83;;;11.40;99.90;;;12.31;100.00;99207.31;5017822;28;20631;-62
2021/05/13 18:28:02;;;;;;;5.20;4.70;;;11.40;99.90;;;12.33;100.00;99204.44;5025418;28;21019;-61
2021/05/13 18:30:31;;;;;;;4.63;4.30;;;11.40;99.90;;;12.34;100.00;99198.06;5030919;28;20525;-62
2021/05/13 18:33:00;;;;;;;4.83;4.43;;;11.40;99.90;;;12.30;100.00;99208.34;5025582;28;21057;-61
2021/05/13 18:35:27;;;;;;;5.87;4.50;;;11.40;99.90;;;12.29;100.00;99198.66;5018081;28;20730;-63
2021/05/13 18:37:54;;;;;;;4.57;4.17;;;11.40;99.90;;;12.29;100.00;99200.50;5010355;28;20493;-63
2021/05/13 18:40:26;;;;;;;5.90;5.30;;;11.40;99.90;;;12.30;100.00;99199.47;5024319;28;21085;-61
2021/05/13 18:42:53;;;;;;;3.53;3.13;;;11.30;99.90;;;12.27;100.00;99206.06;5028460;28;20342;-61
2021/05/13 18:45:23;;;;;;;3.80;3.47;;;11.30;99.90;;;12.27;100.00;99210.59;5024054;28;20222;-62
2021/05/13 18:47:50;;;;;;;4.30;3.50;;;11.30;99.90;;;12.27;100.00;99213.28;5025712;28;20297;-61
2021/05/13 18:50:21;;;;;;;4.60;4.20;;;11.30;99.90;;;12.29;100.00;99219.28;5030630;28;20217;-62
2021/05/13 18:52:47;;;;;;;3.90;3.50;;;11.30;99.90;;;12.27;100.00;99221.31;5030554;28;20213;-62
2021/05/13 18:55:20;;;;;;;4.00;3.70;;;11.30;99.90;;;12.24;100.00;99218.00;5029773;28;20748;-62
2021/05/13 18:57:47;;;;;;;3.97;3.33;;;11.30;99.90;;;12.26;100.00;99219.66;5028715;28;20339;-62
2021/05/13 19:00:17;;;;;;;5.77;5.07;;;11.30;99.90;;;12.26;100.00;99223.16;5000052;28;20729;-62
2021/05/13 19:02:44;;;;;;;5.40;4.90;;;11.30;99.90;;;12.22;100.00;99217.38;5028437;28;20214;-62
2021/05/13 19:05:13;;;;;;;5.07;4.57;;;11.30;99.90;;;12.23;100.00;99216.38;5025690;28;20217;-63
2021/05/13 19:07:41;;;;;;;5.73;5.23;;;11.30;99.90;;;12.19;100.00;99219.63;5011808;28;20254;-62
2021/05/13 19:10:12;;;;;;;5.83;5.17;;;11.30;99.90;;;12.19;100.00;99224.97;5019788;28;20226;-62
2021/05/13 19:12:39;;;;;;;5.77;4.93;;;11.20;99.90;;;12.24;100.00;99233.25;5025756;28;20226;-62
2021/05/13 19:15:07;;;;;;;6.47;5.87;;;11.20;99.90;;;12.18;100.00;99228.69;5021078;28;20253;-61
2021/05/13 19:17:34;;;;;;;6.80;6.10;;;11.20;99.90;;;12.18;100.00;99229.50;5009255;28;21059;-60
2021/05/13 19:20:02;;;;;;;7.73;6.53;;;11.20;99.90;;;12.13;100.00;99228.41;5011729;28;20340;-62
2021/05/13 19:22:28;;;;;;;6.80;5.93;;;11.20;99.90;;;12.11;100.00;99236.69;5019532;28;20226;-62
2021/05/13 19:24:55;;;;;;;6.70;5.60;;;11.20;99.90;;;12.11;100.00;99239.38;5010760;28;20214;-62
2021/05/13 19:27:22;;;;;;;7.83;6.90;;;11.20;99.90;;;12.14;100.00;99240.81;5021136;28;20587;-63
2021/05/13 19:29:57;;;;;;;9.53;6.83;;;11.20;99.90;;;12.13;100.00;99233.78;5016580;28;21037;-63
2021/05/13 19:35:44;;;;;;;7.63;6.83;;;11.20;99.90;;;12.13;100.00;99236.47;5026217;28;20577;-63
2021/05/13 19:38:56;;;;;;;7.83;7.03;;;11.20;99.90;;;12.05;100.00;99240.13;5009520;28;20911;-62
2021/05/13 19:58:09;;;;;;;8.10;7.27;;;11.00;99.90;;;12.04;100.00;99241.16;5026018;28;20763;-62
